Time;durP1;ratioP1;P1;durP2;ratioP2;P2;SDS_P1;SDS_P2;PMS_P1;PMS_P2;Temp;Humidity;BMP_temperature;BMP_pressure;BME280_temperature;BME280_humidity;BME280_pressure;Samples;Min_cycle;Max_cycle;Signal;HPM_P1;HPM_P2
2022/08/30 00:01:58;;;;;;;10.55;6.92;;;;;;;14.11;77.65;100688.67;2075513;85;28018;-68
2022/08/30 00:05:01;;;;;;;13.30;9.18;;;;;;;14.07;77.68;100683.06;2075718;84;29599;-68
2022/08/30 00:08:04;;;;;;;9.65;6.78;;;;;;;14.06;77.79;100684.52;2076156;85;31023;-68
2022/08/30 00:11:09;;;;;;;12.93;7.17;;;;;;;14.03;77.81;100682.88;2075012;85;33211;-68
2022/08/30 00:14:10;;;;;;;13.95;7.75;;;;;;;14.02;77.88;100681.14;2074375;85;29493;-66
2022/08/30 00:17:12;;;;;;;11.45;7.33;;;;;;;13.98;77.93;100680.43;2074414;85;27730;-68
2022/08/30 00:20:19;;;;;;;13.62;6.90;;;;;;;13.96;78.02;100682.38;2074367;85;29781;-66
2022/08/30 00:23:21;;;;;;;10.50;6.95;;;;;;;13.95;78.08;100683.79;2076108;85;32188;-67
2022/08/30 00:26:23;;;;;;;14.73;6.80;;;;;;;13.93;78.13;100679.85;2075413;84;34404;-66
2022/08/30 00:29:25;;;;;;;13.20;7.92;;;;;;;13.93;78.30;100692.44;2075857;84;29339;-68
2022/08/30 00:32:26;;;;;;;9.78;7.45;;;;;;;13.91;78.36;100695.69;2074622;85;27747;-68
2022/08/30 00:35:28;;;;;;;9.70;7.33;;;;;;;13.90;78.33;100699.37;2074405;85;29469;-67
2022/08/30 00:38:32;;;;;;;13.93;8.20;;;;;;;13.89;78.49;100701.17;2073883;85;31260;-69
2022/08/30 00:41:34;;;;;;;15.05;7.65;;;;;;;13.89;78.56;100697.13;2075105;85;32791;-68
2022/08/30 00:44:35;;;;;;;12.43;7.62;;;;;;;13.89;78.65;100694.94;2076009;85;30499;-68
2022/08/30 00:47:36;;;;;;;10.98;6.97;;;;;;;13.88;78.69;100694.55;2076486;85;27643;-68
2022/08/30 00:50:52;;;;;;;15.35;7.90;;;;;;;13.87;78.74;100695.50;2075997;85;29072;-66
2022/08/30 00:53:54;;;;;;;13.80;7.78;;;;;;;13.86;78.79;100689.22;2109677;84;32304;-67
2022/08/30 00:56:57;;;;;;;15.32;6.92;;;;;;;13.85;78.83;100687.98;2114776;84;33622;-66
2022/08/30 00:59:59;;;;;;;11.63;7.33;;;;;;;13.82;78.97;100683.62;2116776;83;30254;-67
2022/08/30 01:03:00;;;;;;;12.35;8.33;;;;;;;13.80;78.96;100686.41;2092169;84;28158;-68
2022/08/30 01:06:04;;;;;;;18.52;8.18;;;;;;;13.81;79.12;100685.95;2093228;84;29014;-65
2022/08/30 01:09:07;;;;;;;11.08;7.50;;;;;;;13.79;79.21;100684.67;2092832;85;31887;-66
2022/08/30 01:12:09;;;;;;;11.90;7.62;;;;;;;13.78;79.20;100674.00;2083124;84;33473;-68
2022/08/30 01:15:13;;;;;;;13.20;7.90;;;;;;;13.77;79.22;100678.99;2112630;84;30715;-65
2022/08/30 01:18:16;;;;;;;12.30;7.42;;;;;;;13.74;79.27;100674.63;2096656;84;27719;-65
2022/08/30 01:21:35;;;;;;;14.00;7.53;;;;;;;13.74;79.30;100677.81;2095832;84;28648;-67
2022/08/30 01:24:37;;;;;;;11.97;7.72;;;;;;;13.73;79.38;100670.69;2117234;83;31974;-63
2022/08/30 01:27:43;;;;;;;12.05;8.18;;;;;;;13.72;79.41;100677.03;2088586;84;33007;-63
2022/08/30 01:30:45;;;;;;;11.83;7.47;;;;;;;13.70;79.48;100680.28;2117059;84;29455;-63
2022/08/30 01:33:46;;;;;;;10.93;7.97;;;;;;;13.68;79.50;100687.11;2118403;84;27670;-64
2022/08/30 01:36:49;;;;;;;11.05;7.87;;;;;;;13.68;79.56;100686.62;2096454;84;29912;-63
2022/08/30 01:39:51;;;;;;;12.47;8.48;;;;;;;13.66;79.58;100684.49;2096409;84;32110;-65
2022/08/30 01:42:52;;;;;;;11.63;7.53;;;;;;;13.64;79.65;100682.85;2065118;84;33462;-66
2022/08/30 01:45:53;;;;;;;12.18;8.23;;;;;;;13.63;79.63;100687.84;2088737;85;29300;-65
2022/08/30 01:48:56;;;;;;;15.32;8.78;;;;;;;13.61;79.70;100690.63;2089023;84;28223;-67
2022/08/30 01:51:58;;;;;;;15.28;8.08;;;;;;;13.59;79.77;100684.46;2132467;81;28652;-63
2022/08/30 01:55:00;;;;;;;12.65;7.90;;;;;;;13.57;79.90;100686.37;2121176;83;31094;-64
2022/08/30 01:58:02;;;;;;;13.50;7.65;;;;;;;13.56;79.92;100687.32;2121546;83;33066;-65
2022/08/30 02:01:06;;;;;;;14.07;8.68;;;;;;;13.54;79.77;100685.68;2114186;83;29083;-65
2022/08/30 02:04:10;;;;;;;12.33;7.95;;;;;;;13.52;79.81;100687.98;2123389;83;27682;-65
2022/08/30 02:07:14;;;;;;;12.07;8.20;;;;;;;13.50;79.79;100689.88;2123400;83;28707;-65
2022/08/30 02:10:19;;;;;;;10.82;7.83;;;;;;;13.49;79.84;100695.33;2123393;83;31420;-64
2022/08/30 02:13:21;;;;;;;16.05;8.20;;;;;;;13.49;79.92;100699.38;2144951;83;33693;-65
2022/08/30 02:16:27;;;;;;;11.00;8.30;;;;;;;13.46;80.04;100700.42;2130230;83;30489;-65
2022/08/30 02:19:29;;;;;;;17.20;8.60;;;;;;;13.45;80.02;100694.64;2145409;83;27742;-64
2022/08/30 02:22:31;;;;;;;10.18;8.18;;;;;;;13.44;80.10;100698.28;2121889;83;28590;-65
2022/08/30 02:25:32;;;;;;;10.38;8.23;;;;;;;13.44;80.15;100702.81;2150910;82;30995;-65
2022/08/30 02:28:34;;;;;;;13.88;9.20;;;;;;;13.44;80.22;100710.89;2121336;83;33390;-66
2022/08/30 02:31:35;;;;;;;13.90;9.38;;;;;;;13.43;80.37;100707.31;2109334;83;29340;-66
2022/08/30 02:34:37;;;;;;;13.15;9.50;;;;;;;13.45;80.56;100702.72;2123307;83;27665;-67
2022/08/30 02:37:39;;;;;;;14.98;9.15;;;;;;;13.45;80.68;100701.37;2145314;83;28790;-64
2022/08/30 02:40:45;;;;;;;14.35;10.13;;;;;;;13.45;80.82;100700.02;2119608;83;31024;-63
2022/08/30 02:43:50;;;;;;;16.95;10.63;;;;;;;13.46;80.95;100700.42;2120658;83;27986;-64
2022/08/30 02:46:52;;;;;;;16.30;10.90;;;;;;;13.48;80.93;100699.01;2150792;82;29431;-64
2022/08/30 02:49:54;;;;;;;17.05;11.28;;;;;;;13.48;81.02;100702.55;2101728;83;27740;-63
2022/08/30 02:52:55;;;;;;;20.92;11.95;;;;;;;13.49;81.14;100704.75;2088388;85;29580;-64
2022/08/30 02:55:58;;;;;;;16.67;13.28;;;;;;;13.52;81.31;100709.52;2101193;84;56161;-66
2022/08/30 02:59:00;;;;;;;19.10;12.15;;;;;;;13.55;81.46;100712.50;2155327;82;33665;-65
2022/08/30 03:02:01;;;;;;;18.98;12.50;;;;;;;13.58;81.59;100706.95;2134741;82;29800;-65
2022/08/30 03:05:05;;;;;;;18.98;12.37;;;;;;;13.65;81.80;100702.94;2132311;82;27720;-65
2022/08/30 03:08:07;;;;;;;23.75;14.28;;;;;;;13.75;81.90;100708.68;2151052;82;29481;-65
2022/08/30 03:11:12;;;;;;;20.08;13.30;;;;;;;13.75;81.90;100708.68;2114293;83;31875;-65
2022/08/30 03:14:13;;;;;;;17.75;12.80;;;;;;;13.80;81.99;100709.30;2114651;84;33977;-65
2022/08/30 03:17:15;;;;;;;20.62;12.70;;;;;;;13.86;82.05;100714.81;2114958;84;29330;-64
2022/08/30 03:20:17;;;;;;;20.60;14.00;;;;;;;13.91;82.17;100710.50;2139762;82;27668;-64
2022/08/30 03:23:19;;;;;;;19.00;13.45;;;;;;;13.97;82.25;100712.86;2149157;82;28666;-65
2022/08/30 03:26:20;;;;;;;20.75;14.20;;;;;;;14.04;82.36;100713.37;2148884;82;30860;-65
2022/08/30 03:29:24;;;;;;;22.98;15.05;;;;;;;14.10;82.39;100713.88;2149409;82;33014;-64
2022/08/30 03:32:25;;;;;;;23.60;15.30;;;;;;;14.16;82.46;100718.53;2150597;82;30065;-64
2022/08/30 03:35:27;;;;;;;21.05;14.73;;;;;;;14.23;82.47;100718.09;2150696;82;27624;-63
2022/08/30 03:38:29;;;;;;;23.52;14.68;;;;;;;14.27;82.47;100721.00;2150546;82;28670;-64
2022/08/30 03:41:31;;;;;;;19.30;13.75;;;;;;;14.33;82.39;100713.48;2148673;82;31057;-64
2022/08/30 03:44:33;;;;;;;22.73;13.70;;;;;;;14.37;82.39;100716.40;2148946;82;33380;-68
2022/08/30 03:47:35;;;;;;;20.57;13.05;;;;;;;14.42;82.41;100727.79;2148873;82;28691;-64
2022/08/30 03:50:39;;;;;;;18.12;13.98;;;;;;;14.44;82.33;100722.69;2150421;82;27720;-72
2022/08/30 03:53:40;;;;;;;22.07;13.13;;;;;;;14.50;82.35;100727.34;2154118;82;28645;-65
2022/08/30 03:56:42;;;;;;;21.93;13.13;;;;;;;14.53;82.28;100723.12;2150594;82;30825;-63
2022/08/30 03:59:43;;;;;;;20.05;13.95;;;;;;;14.57;82.27;100719.25;2105774;83;34118;-62
2022/08/30 04:02:45;;;;;;;20.35;13.65;;;;;;;14.61;82.26;100718.61;2123183;83;29716;-63
2022/08/30 04:05:46;;;;;;;21.60;14.63;;;;;;;14.63;82.25;100718.89;2123229;83;27762;-65
2022/08/30 04:08:51;;;;;;;20.92;14.20;;;;;;;14.68;82.22;100718.64;2123220;83;29384;-63
2022/08/30 04:11:53;;;;;;;22.02;14.30;;;;;;;14.68;82.12;100715.48;2124711;83;31102;-63
2022/08/30 04:14:55;;;;;;;24.47;15.05;;;;;;;14.71;82.04;100713.08;2124900;83;34256;-65
2022/08/30 04:17:58;;;;;;;24.55;14.98;;;;;;;14.74;82.04;100710.20;2124622;83;30215;-64
2022/08/30 04:21:00;;;;;;;19.25;14.75;;;;;;;14.78;82.08;100717.15;2122964;83;28074;-63
2022/08/30 04:24:02;;;;;;;20.80;14.20;;;;;;;14.83;82.12;100719.56;2145100;83;29983;-63
2022/08/30 04:27:04;;;;;;;20.12;15.18;;;;;;;14.88;82.09;100724.20;2144875;83;32313;-64
2022/08/30 04:30:07;;;;;;;19.75;14.93;;;;;;;14.92;82.03;100725.73;2148284;82;32956;-65
2022/08/30 04:33:10;;;;;;;21.55;15.25;;;;;;;14.98;82.08;100729.41;2121405;83;29377;-65
2022/08/30 04:36:12;;;;;;;22.20;15.20;;;;;;;15.02;81.85;100727.38;2121303;83;27702;-64
2022/08/30 04:39:15;;;;;;;18.50;15.15;;;;;;;15.08;81.97;100738.27;2112136;83;29544;-63
2022/08/30 04:42:17;;;;;;;21.57;13.95;;;;;;;15.14;81.85;100737.41;2123129;83;31019;-63
2022/08/30 04:45:20;;;;;;;20.27;14.43;;;;;;;15.19;81.86;100740.70;2145594;83;33258;-63
2022/08/30 04:48:22;;;;;;;20.55;13.72;;;;;;;15.25;81.80;100739.45;2145376;83;29337;-64
2022/08/30 04:51:24;;;;;;;21.52;14.63;;;;;;;15.33;81.82;100743.02;2145568;83;27982;-63
2022/08/30 04:54:26;;;;;;;16.55;13.50;;;;;;;15.41;81.78;100741.19;2148147;82;28681;-64
2022/08/30 04:57:29;;;;;;;18.00;12.80;;;;;;;15.49;81.68;100745.63;2148455;82;31200;-65
2022/08/30 05:00:30;;;;;;;16.97;12.47;;;;;;;15.56;81.55;100749.66;2150151;82;33459;-68
2022/08/30 05:03:32;;;;;;;19.37;14.38;;;;;;;15.60;81.53;100739.56;2150856;82;30503;-69
2022/08/30 05:06:33;;;;;;;22.00;14.45;;;;;;;15.72;81.60;100744.16;2122057;83;28135;-68
2022/08/30 05:09:36;;;;;;;19.90;13.10;;;;;;;15.82;81.41;100743.55;2110939;84;29889;-65
2022/08/30 05:12:39;;;;;;;20.90;14.07;;;;;;;15.85;81.31;100722.67;2098090;84;30816;-64
2022/08/30 05:15:41;;;;;;;19.35;12.23;;;;;;;15.85;81.31;100722.67;2100711;84;34366;-65
2022/08/30 05:18:45;;;;;;;13.98;12.50;;;;;;;16.12;81.33;100750.69;2102111;83;30215;-64
2022/08/30 05:21:46;;;;;;;17.23;12.10;;;;;;;16.27;81.39;100752.37;2119995;83;27763;-64
2022/08/30 05:24:48;;;;;;;14.85;11.50;;;;;;;16.45;81.25;100750.27;2101069;84;28664;-63
2022/08/30 05:27:52;;;;;;;16.65;12.30;;;;;;;16.62;80.81;100752.31;2101244;84;30897;-63
2022/08/30 05:30:53;;;;;;;14.65;11.50;;;;;;;16.77;80.79;100749.91;2101457;84;32954;-66
2022/08/30 05:33:55;;;;;;;16.95;11.38;;;;;;;16.95;80.72;100751.00;2115818;83;30421;-65
2022/08/30 05:36:56;;;;;;;18.98;11.03;;;;;;;17.01;80.23;100739.76;2101794;84;27753;-65
2022/08/30 05:39:58;;;;;;;21.10;12.03;;;;;;;17.16;79.99;100751.33;2101253;84;29097;-64
2022/08/30 05:43:00;;;;;;;18.07;11.57;;;;;;;17.27;79.78;100765.00;2109858;83;32061;-65
2022/08/30 05:46:11;;;;;;;16.87;11.88;;;;;;;17.34;79.54;100761.84;2121457;83;33378;-64
2022/08/30 05:49:15;;;;;;;15.08;11.25;;;;;;;17.40;79.37;100761.42;2121049;83;29552;-68
2022/08/30 05:52:17;;;;;;;16.45;11.28;;;;;;;17.45;79.22;100760.11;2117667;83;27710;-64
2022/08/30 05:55:19;;;;;;;16.00;10.95;;;;;;;17.49;79.14;100755.33;2101141;84;29166;-70
2022/08/30 05:58:20;;;;;;;14.28;11.38;;;;;;;17.55;78.98;100759.44;2101214;84;31109;-70
2022/08/30 06:01:26;;;;;;;16.95;11.10;;;;;;;17.59;78.70;100763.67;2101295;84;33661;-69
2022/08/30 06:04:28;;;;;;;15.63;11.18;;;;;;;17.61;78.68;100766.66;2118003;83;29954;-68
2022/08/30 06:07:29;;;;;;;13.43;10.10;;;;;;;17.64;78.51;100764.22;2121696;83;27613;-69
2022/08/30 06:10:31;;;;;;;15.53;10.55;;;;;;;17.72;78.60;100765.02;2121443;83;29278;-70
2022/08/30 06:13:32;;;;;;;16.05;11.20;;;;;;;17.79;78.54;100760.86;2110328;83;32150;-68
2022/08/30 06:16:37;;;;;;;15.93;10.50;;;;;;;17.87;78.45;100767.11;2101688;84;33778;-69
2022/08/30 06:19:39;;;;;;;15.35;10.90;;;;;;;17.95;78.46;100766.04;2101668;84;30100;-67
2022/08/30 06:22:40;;;;;;;17.37;10.98;;;;;;;18.05;78.21;100767.62;2106927;83;28211;-67
2022/08/30 06:25:41;;;;;;;14.78;10.60;;;;;;;18.15;78.06;100767.81;2121657;83;28605;-67
2022/08/30 06:28:42;;;;;;;19.35;10.88;;;;;;;18.25;78.19;100771.55;2107401;83;32113;-71
2022/08/30 06:31:44;;;;;;;14.35;10.70;;;;;;;18.42;78.33;100781.16;2101533;84;33408;-71
2022/08/30 06:34:46;;;;;;;16.55;11.12;;;;;;;18.59;77.99;100776.30;2120612;83;30513;-70
2022/08/30 06:37:47;;;;;;;15.32;10.50;;;;;;;18.71;77.38;100772.64;2121689;83;27661;-68
2022/08/30 06:40:49;;;;;;;12.58;10.15;;;;;;;18.79;77.52;100781.05;2121771;83;29901;-69
2022/08/30 06:43:52;;;;;;;15.30;9.53;;;;;;;18.97;77.62;100777.45;2108358;83;31440;-68
2022/08/30 06:46:53;;;;;;;11.93;10.00;;;;;;;19.17;77.55;100774.16;2101646;84;33796;-69
2022/08/30 06:49:54;;;;;;;15.20;10.13;;;;;;;19.33;77.05;100773.83;2101601;84;29692;-70
2022/08/30 06:52:58;;;;;;;13.70;10.68;;;;;;;19.46;76.62;100779.13;2108156;83;28285;-70
2022/08/30 06:56:08;;;;;;;17.10;10.13;;;;;;;19.57;76.40;100781.88;2124113;83;29334;-71
2022/08/30 06:59:09;;;;;;;11.90;9.53;;;;;;;19.68;76.19;100782.37;2159369;81;31406;-68
2022/08/30 07:02:10;;;;;;;14.20;10.90;;;;;;;19.76;75.71;100783.97;2128258;83;32763;-66
2022/08/30 07:05:12;;;;;;;12.53;9.70;;;;;;;19.81;75.64;100781.75;2065751;84;30526;-69
2022/08/30 07:08:14;;;;;;;13.60;10.82;;;;;;;19.88;75.50;100787.08;2152433;82;27703;-69
2022/08/30 07:11:37;;;;;;;14.78;11.63;;;;;;;19.98;75.12;100785.83;2125747;83;28361;-65
2022/08/30 07:14:36;;;;;;;16.35;11.35;;;;;;;20.05;75.20;100790.27;2159807;82;27769;-69
2022/08/30 07:21:00;;;;;;;16.30;11.25;;;;;;;20.49;74.81;100789.81;2162331;82;30634;-67
2022/08/30 07:24:03;;;;;;;16.93;11.28;;;;;;;20.78;74.94;100794.67;2149407;82;27660;-66
2022/08/30 07:27:04;;;;;;;11.88;10.60;;;;;;;21.01;74.39;100793.22;2123265;83;28648;-66
2022/08/30 07:30:07;;;;;;;19.45;10.90;;;;;;;21.18;73.75;100800.42;2123255;83;31416;-69
2022/08/30 07:33:09;;;;;;;15.78;10.63;;;;;;;21.30;73.20;100806.64;2160025;82;33619;-70
2022/08/30 07:36:11;;;;;;;13.00;10.08;;;;;;;21.34;73.13;100798.09;2131122;83;29122;-65
2022/08/30 07:39:12;;;;;;;11.57;10.28;;;;;;;21.40;72.82;100802.98;2163814;82;27683;-67
2022/08/30 07:42:13;;;;;;;14.68;11.10;;;;;;;21.42;72.31;100801.51;2129856;83;29308;-67
2022/08/30 07:45:15;;;;;;;15.15;10.55;;;;;;;21.45;71.72;100801.21;2104467;84;31377;-66
2022/08/30 07:48:16;;;;;;;13.72;9.88;;;;;;;21.50;71.99;100801.68;2152346;82;33019;-70
2022/08/30 07:51:21;;;;;;;10.68;9.55;;;;;;;21.68;72.09;100807.90;2142686;83;29244;-68
2022/08/30 07:54:22;;;;;;;13.58;9.95;;;;;;;21.88;71.68;100806.63;2160334;82;27698;-69
2022/08/30 07:57:24;;;;;;;12.58;10.30;;;;;;;22.10;71.33;100805.03;2137411;83;29201;-66
2022/08/30 08:00:26;;;;;;;12.40;9.38;;;;;;;22.29;70.74;100809.70;2148681;82;31196;-70
2022/08/30 08:03:28;;;;;;;10.78;9.10;;;;;;;22.48;70.25;100812.14;2149371;82;32891;-65
2022/08/30 08:06:31;;;;;;;10.80;7.97;;;;;;;22.63;69.93;100819.39;2150651;82;30558;-72
2022/08/30 08:09:35;;;;;;;12.07;8.53;;;;;;;22.79;69.53;100821.58;2151045;82;27740;-64
2022/08/30 08:12:37;;;;;;;9.00;8.10;;;;;;;22.99;68.96;100822.95;2150762;82;28646;-67
2022/08/30 08:15:38;;;;;;;11.05;8.60;;;;;;;23.11;68.70;100820.41;2132889;83;32194;-67
2022/08/30 08:18:40;;;;;;;9.68;7.45;;;;;;;23.35;68.42;100821.83;2148505;82;33369;-66
2022/08/30 08:21:41;;;;;;;8.00;6.47;;;;;;;23.58;68.09;100831.91;2133276;83;29332;-64
2022/08/30 08:24:43;;;;;;;7.58;6.62;;;;;;;23.69;67.66;100834.13;2150108;82;27723;-68
2022/08/30 08:27:49;;;;;;;7.00;6.40;;;;;;;23.74;67.20;100831.30;2150596;82;29528;-67
2022/08/30 08:30:52;;;;;;;7.95;7.15;;;;;;;23.97;66.39;100836.44;2150780;82;31983;-69
2022/08/30 08:33:55;;;;;;;7.97;7.03;;;;;;;24.15;66.64;100837.01;2149545;82;33589;-69
2022/08/30 08:36:56;;;;;;;6.72;6.10;;;;;;;24.54;65.56;100832.64;2132960;83;30730;-72
2022/08/30 08:39:58;;;;;;;8.33;6.75;;;;;;;24.69;65.45;100835.73;2149108;82;27672;-72
2022/08/30 08:43:18;;;;;;;7.75;5.90;;;;;;;24.72;64.92;100832.71;2149357;82;29843;-66
2022/08/30 08:46:42;;;;;;;6.37;5.53;;;;;;;24.73;64.57;100840.77;2150798;82;30897;-71
2022/08/30 08:49:46;;;;;;;6.17;5.42;;;;;;;24.79;64.45;100839.27;2150918;82;33353;-70
2022/08/30 08:56:33;;;;;;;;;;;;;;;25.04;63.86;100838.14;2135550;83;27708;-69
2022/08/30 08:59:36;;;;;;;4.60;4.10;;;;;;;25.15;62.97;100832.41;2145910;82;29244;-66
2022/08/30 09:03:07;;;;;;;5.58;3.80;;;;;;;25.48;63.24;100829.94;2145494;82;31866;-66
2022/08/30 09:06:41;;;;;;;4.25;3.85;;;;;;;25.75;62.57;100832.67;2128649;82;34152;-69
2022/08/30 09:09:42;;;;;;;4.60;3.85;;;;;;;25.89;61.32;100826.56;2134443;83;29689;-68
2022/08/30 09:12:47;;;;;;;5.53;3.85;;;;;;;25.75;60.36;100829.40;2117281;82;27636;-65
2022/08/30 09:15:48;;;;;;;5.85;3.40;;;;;;;25.73;60.08;100829.23;2101102;84;29537;-69
2022/08/30 09:18:50;;;;;;;3.70;3.40;;;;;;;25.58;59.79;100823.47;2155478;82;32407;-67
2022/08/30 09:21:59;;;;;;;4.25;2.90;;;;;;;25.54;59.72;100823.46;2155415;82;34111;-69
2022/08/30 09:25:13;;;;;;;3.15;2.85;;;;;;;25.42;59.63;100818.75;2155557;82;29509;-66
2022/08/30 09:28:17;;;;;;;3.15;2.85;;;;;;;25.49;59.58;100822.55;2143121;82;27725;-68
2022/08/30 09:32:10;;;;;;;;;;;;;;;25.72;59.36;100818.77;2108670;82;28654;-71
2022/08/30 09:34:42;;;;;;;3.22;2.95;;;;;;;25.93;58.64;100822.48;2149487;82;31773;-72
2022/08/30 09:37:56;;;;;;;3.45;3.05;;;;;;;25.85;58.39;100824.32;2142993;82;27967;-71
2022/08/30 09:41:02;;;;;;;3.37;3.08;;;;;;;25.90;58.56;100828.78;2155001;82;30272;-74
2022/08/30 09:44:12;;;;;;;3.35;3.15;;;;;;;25.99;58.46;100818.70;2156057;82;27719;-69
2022/08/30 09:47:30;;;;;;;3.45;2.98;;;;;;;26.04;58.15;100824.08;2155162;82;29602;-69
2022/08/30 09:50:33;;;;;;;3.35;2.80;;;;;;;26.03;57.82;100813.23;2132916;83;32138;-69
2022/08/30 09:54:11;;;;;;;3.08;2.77;;;;;;;26.03;56.94;100814.61;2149453;82;32968;-68
2022/08/30 09:57:35;;;;;;;3.27;2.98;;;;;;;25.90;57.14;100811.81;2150519;82;30737;-66
2022/08/30 10:00:45;;;;;;;3.47;3.10;;;;;;;25.77;57.01;100815.53;2049355;86;27965;-64
2022/08/30 10:03:59;;;;;;;2.98;2.67;;;;;;;25.77;56.86;100813.63;2048635;86;28664;-68
2022/08/30 10:07:17;;;;;;;5.17;3.30;;;;;;;25.66;56.50;100802.95;2047784;86;31432;-71
2022/08/30 10:10:39;;;;;;;4.15;2.77;;;;;;;25.53;56.29;100806.65;2047843;86;32977;-70
2022/08/30 10:14:11;;;;;;;3.95;3.27;;;;;;;25.44;56.24;100805.21;2013289;87;29576;-68
2022/08/30 10:17:37;;;;;;;3.12;2.83;;;;;;;25.34;56.00;100808.02;2014794;88;27717;-67
2022/08/30 10:20:56;;;;;;;5.78;3.25;;;;;;;25.21;56.03;100802.63;2049004;86;30102;-63
2022/08/30 10:24:05;;;;;;;4.17;2.65;;;;;;;25.05;56.33;100806.97;2014006;87;32452;-64
2022/08/30 10:27:21;;;;;;;3.15;2.95;;;;;;;24.90;56.60;100801.18;1991161;88;32717;-64
2022/08/30 10:30:22;;;;;;;2.60;2.40;;;;;;;24.85;56.26;100799.41;2013085;88;29831;-64
2022/08/30 10:33:31;;;;;;;3.40;2.80;;;;;;;24.79;56.44;100802.28;2013775;88;27748;-63
2022/08/30 10:36:38;;;;;;;3.90;2.35;;;;;;;24.82;56.29;100801.12;2049385;83;29883;-63
2022/08/30 10:39:48;;;;;;;2.55;2.20;;;;;;;24.81;56.05;100800.77;2124882;83;31396;-63
2022/08/30 10:42:50;;;;;;;2.27;2.12;;;;;;;24.87;56.02;100791.41;2124921;83;33622;-67
2022/08/30 10:45:56;;;;;;;2.45;2.25;;;;;;;25.02;55.66;100791.68;2123776;83;29089;-69
2022/08/30 10:49:01;;;;;;;2.52;2.17;;;;;;;25.02;54.91;100784.83;2124247;83;27670;-70
2022/08/30 10:52:23;;;;;;;2.37;2.17;;;;;;;24.97;55.06;100794.06;2124397;83;28580;-72
2022/08/30 10:55:32;;;;;;;2.15;1.92;;;;;;;24.86;54.48;100788.80;2126379;83;32218;-70
2022/08/30 10:58:38;;;;;;;2.20;2.00;;;;;;;24.71;54.93;100794.00;2125130;83;32203;-71
2022/08/30 11:02:17;;;;;;;3.47;2.52;;;;;;;24.62;55.05;100788.91;2110894;83;29750;-70
2022/08/30 11:05:48;;;;;;;2.77;2.52;;;;;;;24.51;54.91;100785.89;2082017;85;28064;-72
2022/08/30 11:09:25;;;;;;;2.25;2.15;;;;;;;24.35;54.79;100787.09;2082232;84;29127;-67
2022/08/30 11:12:35;;;;;;;2.35;1.80;;;;;;;24.26;54.88;100787.51;2098865;84;32234;-69
2022/08/30 11:15:54;;;;;;;2.10;1.92;;;;;;;24.25;55.12;100782.52;2119979;84;33639;-63
2022/08/30 11:18:57;;;;;;;1.80;1.70;;;;;;;24.33;54.52;100788.59;2119327;83;30440;-65
2022/08/30 11:22:28;;;;;;;2.52;2.33;;;;;;;24.46;54.00;100784.64;2087767;84;27817;-62
2022/08/30 11:26:01;;;;;;;2.75;1.87;;;;;;;24.47;53.85;100782.26;2082041;84;29878;-63
2022/08/30 11:29:04;;;;;;;4.22;2.33;;;;;;;24.60;54.36;100775.00;2082109;85;31031;-69
2022/08/30 11:32:23;;;;;;;2.55;2.22;;;;;;;24.65;53.86;100766.69;2094322;84;33322;-63
2022/08/30 11:35:40;;;;;;;3.00;1.80;;;;;;;24.65;53.95;100759.84;2119349;84;29339;-65
2022/08/30 11:38:47;;;;;;;2.35;2.15;;;;;;;24.66;53.71;100756.58;2118739;83;27584;-70
2022/08/30 11:41:54;;;;;;;2.50;2.30;;;;;;;24.62;53.75;100754.67;2111371;83;29042;-69
2022/08/30 11:45:27;;;;;;;1.80;1.67;;;;;;;24.53;54.02;100770.66;2068225;84;32199;-67
2022/08/30 11:48:50;;;;;;;2.20;1.98;;;;;;;24.33;52.65;100768.06;2082202;85;33331;-67
2022/08/30 11:52:16;;;;;;;2.12;1.90;;;;;;;24.12;52.96;100765.61;2086502;84;30134;-68
2022/08/30 11:55:40;;;;;;;2.30;2.10;;;;;;;24.05;53.64;100761.26;2120611;83;28122;-62
2022/08/30 11:58:50;;;;;;;2.60;2.40;;;;;;;24.07;53.58;100766.60;2124935;82;29932;-66
2022/08/30 12:01:51;;;;;;;2.62;2.02;;;;;;;24.09;53.32;100759.07;2124782;83;31066;-63
2022/08/30 12:04:55;;;;;;;2.58;2.37;;;;;;;24.22;53.49;100757.34;2123479;83;33688;-63
2022/08/30 12:08:00;;;;;;;2.42;2.20;;;;;;;24.38;53.91;100766.25;2123099;83;29268;-71
2022/08/30 12:11:13;;;;;;;2.55;2.10;;;;;;;24.52;53.42;100760.72;2103116;83;27731;-64
2022/08/30 12:14:40;;;;;;;3.85;2.02;;;;;;;24.64;53.48;100755.37;2147107;82;29051;-62
2022/08/30 12:21:21;;;;;;;2.40;2.20;;;;;;;24.83;53.28;100754.36;2121207;83;33945;-64
2022/08/30 12:24:38;;;;;;;2.22;2.02;;;;;;;24.91;53.52;100747.20;2092032;83;29322;-63
2022/08/30 12:27:39;;;;;;;2.85;1.95;;;;;;;25.07;53.40;100745.96;2145210;82;28292;-68
2022/08/30 12:30:41;;;;;;;2.70;2.20;;;;;;;25.18;53.17;100733.38;2130168;83;29109;-65
2022/08/30 12:33:48;;;;;;;1.90;1.80;;;;;;;25.29;53.23;100740.48;2148547;82;32238;-64
2022/08/30 12:36:57;;;;;;;2.20;2.08;;;;;;;25.36;52.71;100731.58;2121427;83;32975;-65
2022/08/30 12:40:10;;;;;;;3.65;2.30;;;;;;;25.44;52.80;100727.03;2121451;83;29379;-64
2022/08/30 12:43:19;;;;;;;3.27;2.08;;;;;;;25.46;52.01;100723.62;2105324;83;27761;-64
2022/08/30 12:46:24;;;;;;;2.08;1.62;;;;;;;25.56;52.15;100723.50;2145293;82;28662;-63
2022/08/30 12:49:30;;;;;;;2.40;2.20;;;;;;;25.68;51.77;100714.47;2129776;83;32217;-64
2022/08/30 12:52:41;;;;;;;2.80;2.20;;;;;;;25.75;51.54;100713.29;2145851;82;32960;-65
2022/08/30 12:56:02;;;;;;;2.15;1.90;;;;;;;25.79;51.08;100717.43;2120812;83;29359;-64
2022/08/30 12:59:03;;;;;;;1.55;1.45;;;;;;;25.74;50.23;100716.53;2121663;83;27556;-67
2022/08/30 13:02:24;;;;;;;4.85;1.57;;;;;;;25.69;49.78;100712.07;2117696;83;28592;-67
2022/08/30 13:05:42;;;;;;;4.33;1.72;;;;;;;25.56;50.02;100711.16;2122760;83;31474;-65
2022/08/30 13:08:49;;;;;;;5.00;2.17;;;;;;;25.47;50.07;100706.14;2122919;83;34175;-65
2022/08/30 13:11:51;;;;;;;1.65;1.52;;;;;;;25.35;49.45;100707.42;2122968;83;29795;-63
2022/08/30 13:14:53;;;;;;;2.00;1.85;;;;;;;25.14;47.34;100695.48;2124853;82;27611;-62
2022/08/30 13:18:31;;;;;;;1.75;1.52;;;;;;;24.90;47.70;100697.55;2104912;83;28653;-72
2022/08/30 13:21:41;;;;;;;5.62;2.00;;;;;;;24.76;48.64;100698.98;2124268;83;27738;-69
2022/08/30 13:24:43;;;;;;;1.70;1.60;;;;;;;24.77;49.02;100692.48;2067416;85;30918;-66
2022/08/30 13:27:44;;;;;;;3.02;2.20;;;;;;;24.75;48.98;100690.41;2089406;85;29245;-63
2022/08/30 13:30:45;;;;;;;2.35;1.75;;;;;;;24.69;49.32;100685.88;2089266;85;27738;-64
2022/08/30 13:33:51;;;;;;;1.90;1.80;;;;;;;24.68;49.40;100686.05;2112724;83;29034;-66
2022/08/30 13:36:56;;;;;;;3.65;2.20;;;;;;;24.65;49.67;100684.50;2122453;83;31419;-70
2022/08/30 13:39:58;;;;;;;2.98;1.72;;;;;;;24.62;49.68;100683.94;2122682;83;33877;-63
2022/08/30 13:42:59;;;;;;;1.87;1.67;;;;;;;24.56;49.63;100679.95;2147252;82;30202;-66
2022/08/30 13:46:01;;;;;;;4.17;2.20;;;;;;;24.50;49.43;100682.83;2121320;83;27711;-65
2022/08/30 13:49:06;;;;;;;1.65;1.45;;;;;;;24.43;49.39;100677.13;2121265;83;28621;-69
2022/08/30 13:52:08;;;;;;;2.62;1.98;;;;;;;24.41;49.29;100676.91;2118252;83;31001;-61
2022/08/30 13:55:11;;;;;;;3.30;1.75;;;;;;;24.34;48.45;100673.09;2123157;83;33428;-65
2022/08/30 13:58:12;;;;;;;2.95;1.60;;;;;;;24.27;48.61;100668.23;2123186;83;30506;-63
2022/08/30 14:01:13;;;;;;;2.30;1.55;;;;;;;24.24;48.94;100671.80;2123254;83;27698;-64
2022/08/30 14:04:15;;;;;;;1.52;1.42;;;;;;;24.22;47.69;100653.30;2123214;83;29025;-64
2022/08/30 14:07:16;;;;;;;2.12;1.92;;;;;;;24.23;48.22;100649.55;2145579;83;31056;-66
2022/08/30 14:10:20;;;;;;;2.22;1.80;;;;;;;24.21;48.00;100648.35;2130597;83;32308;-64
2022/08/30 14:13:23;;;;;;;1.92;1.72;;;;;;;24.19;48.37;100643.54;2148419;82;29332;-66
2022/08/30 14:16:25;;;;;;;1.70;1.60;;;;;;;24.20;48.50;100643.89;2150596;82;27674;-64
2022/08/30 14:19:26;;;;;;;2.95;1.55;;;;;;;24.20;48.33;100647.12;2121154;83;28672;-63
2022/08/30 14:22:49;;;;;;;1.50;1.40;;;;;;;24.17;48.33;100656.52;2115749;83;31111;-70
2022/08/30 14:25:52;;;;;;;4.47;2.75;;;;;;;24.12;48.10;100648.78;2122553;83;33628;-65
2022/08/30 14:28:53;;;;;;;1.72;1.50;;;;;;;24.10;47.78;100649.94;2122848;83;29326;-66